createdAt,value
2023-03-16T00:00:23.652Z,47.40
2023-03-16T00:02:51.559Z,47.05
2023-03-16T00:05:19.618Z,42.17
2023-03-16T00:07:47.503Z,47.65
2023-03-16T12:16:22.333Z,1.17
2023-03-16T12:18:54.244Z,2.05
2023-03-16T12:21:25.856Z,1.30
2023-03-16T12:23:55.369Z,5.57
2023-03-16T12:26:26.446Z,1.40
2023-03-16T12:28:55.548Z,4.82
2023-03-16T12:31:37.504Z,2.97
2023-03-16T12:34:24.219Z,0.93
2023-03-16T12:37:02.546Z,1.60
2023-03-16T12:39:45.850Z,2.13
2023-03-16T12:42:29.317Z,0.98
2023-03-16T12:45:00.921Z,0.70
2023-03-16T12:47:34.498Z,1.92
2023-03-16T12:50:07.643Z,1.42
2023-03-16T12:52:43.131Z,2.22
2023-03-16T12:55:15.503Z,3.30
2023-03-16T12:57:44.912Z,8.73
2023-03-16T13:00:15.453Z,3.08
2023-03-16T13:02:50.864Z,5.80
2023-03-16T13:05:29.996Z,2.80
2023-03-16T13:08:08.011Z,3.92
2023-03-16T13:10:37.466Z,6.70
2023-03-16T13:13:11.317Z,10.70
2023-03-16T13:15:40.139Z,25.13
2023-03-16T13:18:24.792Z,22.98
2023-03-16T13:20:58.158Z,25.95
2023-03-16T13:23:28.995Z,24.77
2023-03-16T13:26:06.761Z,21.90
2023-03-16T13:28:37.587Z,26.65
2023-03-16T13:31:18.004Z,19.70
2023-03-16T13:33:49.139Z,23.75
2023-03-16T13:36:17.539Z,22.23
2023-03-16T13:38:56.045Z,15.45
2023-03-16T13:41:24.784Z,15.65
2023-03-16T13:43:53.002Z,17.58
2023-03-16T13:46:27.982Z,17.73
2023-03-16T13:51:26.528Z,13.50
2023-03-16T13:53:54.753Z,12.02
2023-03-16T13:56:26.887Z,8.65
2023-03-16T13:58:56.954Z,12.35
2023-03-16T14:01:28.238Z,14.52
2023-03-16T14:04:03.295Z,8.38
2023-03-16T14:09:05.120Z,9.25
2023-03-16T14:11:33.133Z,8.65
2023-03-16T14:14:02.165Z,6.35
2023-03-16T14:16:32.205Z,8.00
2023-03-16T14:19:04.909Z,7.57
2023-03-16T14:21:34.946Z,8.18
2023-03-16T14:24:05.372Z,7.95
2023-03-16T14:26:42.356Z,6.68
2023-03-16T14:29:19.869Z,7.72
2023-03-16T14:31:47.879Z,6.10
2023-03-16T14:34:29.858Z,6.95
2023-03-16T14:37:17.570Z,5.10
2023-03-16T14:39:45.667Z,4.05
2023-03-16T14:42:18.904Z,10.35
2023-03-16T14:44:47.550Z,9.77
2023-03-16T14:47:23.416Z,7.05
2023-03-16T14:49:53.282Z,6.18
2023-03-16T14:52:27.224Z,35.75
2023-03-16T14:54:55.536Z,8.75
2023-03-16T14:57:24.440Z,5.85
2023-03-16T14:59:52.321Z,4.53
2023-03-16T15:02:25.424Z,4.25
2023-03-16T15:04:55.522Z,5.85
2023-03-16T15:07:25.924Z,7.75
2023-03-16T15:09:55.716Z,5.53
2023-03-16T15:12:26.127Z,11.40
2023-03-16T15:15:11.116Z,8.02
2023-03-16T15:17:39.021Z,7.22
2023-03-16T15:20:10.047Z,5.95
2023-03-16T15:22:39.886Z,7.03
2023-03-16T15:25:26.600Z,7.57
2023-03-16T15:27:54.994Z,8.15
2023-03-16T15:30:25.855Z,5.60
2023-03-16T15:32:54.217Z,9.35
2023-03-16T15:35:23.602Z,11.23
2023-03-16T15:37:51.500Z,5.75
2023-03-16T15:40:22.389Z,9.55
2023-03-16T15:42:50.461Z,6.22
2023-03-16T15:45:20.683Z,6.10
2023-03-16T15:47:49.684Z,9.07
2023-03-16T15:50:20.730Z,4.68
2023-03-16T15:52:53.698Z,4.82
2023-03-16T15:55:24.322Z,5.20
2023-03-16T15:57:58.919Z,7.20
2023-03-16T16:00:33.077Z,4.40
2023-03-16T16:03:01.952Z,8.52
2023-03-16T16:05:30.898Z,4.72
2023-03-16T16:08:00.836Z,5.55
2023-03-16T16:10:29.621Z,5.07
2023-03-16T16:12:58.321Z,4.72
2023-03-16T16:15:29.410Z,6.35
2023-03-16T16:18:19.881Z,5.00
2023-03-16T16:20:46.387Z,4.40
2023-03-16T16:23:15.669Z,4.53
2023-03-16T16:25:43.940Z,4.85
2023-03-16T16:28:17.497Z,5.13
2023-03-16T16:30:45.991Z,5.70
2023-03-16T16:33:25.003Z,4.45
2023-03-16T16:35:53.195Z,4.75
2023-03-16T16:38:23.013Z,4.75
2023-03-16T16:40:51.874Z,1.95
2023-03-16T16:43:28.272Z,3.45
2023-03-16T16:45:56.306Z,2.10
2023-03-16T16:48:31.685Z,4.25
2023-03-16T16:50:59.792Z,4.30
2023-03-16T16:53:29.255Z,2.28
2023-03-16T16:55:57.682Z,4.22
2023-03-16T16:58:25.888Z,5.07
2023-03-16T17:00:55.682Z,1.60
2023-03-16T17:03:25.620Z,3.72
2023-03-16T17:05:54.230Z,2.95
2023-03-16T17:08:23.167Z,1.33
2023-03-16T17:10:53.174Z,2.42
2023-03-16T17:13:27.255Z,1.38
2023-03-16T17:15:55.836Z,3.97
2023-03-16T17:18:24.333Z,1.65
2023-03-16T17:20:52.365Z,4.18
2023-03-16T17:23:27.418Z,2.03
2023-03-16T17:28:27.361Z,1.70
2023-03-16T17:30:55.359Z,1.85
2023-03-16T17:33:26.283Z,1.55
2023-03-16T17:35:54.207Z,0.80
2023-03-16T17:38:24.479Z,1.90
2023-03-16T17:40:53.894Z,1.25
2023-03-16T17:43:24.755Z,1.80
2023-03-16T17:45:53.789Z,1.38
2023-03-16T17:48:24.120Z,3.78
2023-03-16T17:50:52.452Z,1.50
2023-03-16T17:53:21.804Z,0.88
2023-03-16T17:55:49.747Z,1.67
2023-03-16T17:58:26.739Z,1.88
2023-03-16T18:00:55.892Z,1.02
2023-03-16T18:03:28.097Z,1.92
2023-03-16T18:05:57.184Z,1.75
2023-03-16T18:08:27.341Z,2.22
2023-03-16T18:10:57.859Z,0.95
2023-03-16T18:13:30.653Z,0.95
2023-03-16T18:15:59.464Z,1.55
2023-03-16T18:18:29.308Z,0.95
2023-03-16T18:21:00.326Z,1.60
2023-03-16T18:23:30.357Z,1.77
2023-03-16T18:26:01.146Z,1.27
2023-03-16T18:28:30.635Z,0.85
2023-03-16T18:30:59.295Z,1.42
2023-03-16T18:33:30.287Z,0.65
2023-03-16T18:36:00.635Z,0.93
2023-03-16T18:38:31.988Z,0.55
2023-03-16T18:41:02.021Z,0.65
2023-03-16T18:43:31.405Z,0.47
2023-03-16T18:45:59.280Z,0.63
2023-03-16T18:48:30.998Z,1.02
2023-03-16T18:50:59.065Z,1.75
2023-03-16T18:53:28.931Z,0.55
2023-03-16T18:55:57.749Z,0.40
2023-03-16T18:58:25.958Z,0.50
2023-03-16T19:00:56.819Z,0.55
2023-03-16T19:03:27.308Z,0.60
2023-03-16T19:05:56.999Z,0.57
2023-03-16T19:08:26.343Z,0.32
2023-03-16T19:10:57.049Z,0.35
2023-03-16T19:13:26.459Z,0.60
2023-03-16T19:15:57.742Z,0.77
2023-03-16T19:18:26.645Z,6.00
2023-03-16T19:20:56.471Z,4.00
2023-03-16T19:23:27.542Z,4.65
2023-03-16T19:25:56.404Z,5.72
2023-03-16T19:28:29.095Z,7.70
2023-03-16T19:30:58.360Z,11.80
2023-03-16T19:33:27.531Z,11.05
2023-03-16T19:35:56.677Z,7.93
2023-03-16T19:38:26.263Z,13.43
2023-03-16T19:40:56.327Z,9.07
2023-03-16T19:43:24.898Z,15.13
2023-03-16T19:45:54.643Z,9.23
2023-03-16T19:48:32.124Z,12.35
2023-03-16T19:51:00.036Z,12.32
2023-03-16T19:53:27.982Z,15.30
2023-03-16T19:55:55.988Z,13.02
2023-03-16T19:58:30.915Z,14.43
2023-03-16T20:03:28.705Z,21.15
2023-03-16T20:05:56.607Z,21.48
2023-03-16T20:08:26.432Z,24.13
2023-03-16T20:10:57.910Z,22.42
2023-03-16T20:13:26.253Z,26.05
2023-03-16T20:15:54.295Z,23.17
2023-03-16T20:18:22.242Z,33.38
2023-03-16T20:20:51.699Z,24.45
2023-03-16T20:23:24.430Z,31.65
2023-03-16T20:25:54.528Z,24.55
2023-03-16T20:28:24.561Z,23.00
2023-03-16T20:30:53.675Z,33.80
2023-03-16T20:33:24.048Z,22.23
2023-03-16T20:35:54.297Z,32.15
2023-03-16T20:38:22.842Z,23.88
2023-03-16T20:40:53.294Z,29.55
2023-03-16T20:43:26.939Z,30.52
2023-03-16T20:45:57.320Z,26.92
2023-03-16T20:48:25.935Z,35.65
2023-03-16T20:50:56.171Z,33.70
2023-03-16T20:53:24.681Z,24.60
2023-03-16T20:55:54.482Z,36.60
2023-03-16T20:58:25.457Z,31.48
2023-03-16T21:00:57.317Z,31.50
2023-03-16T21:03:27.511Z,31.35
2023-03-16T21:05:59.651Z,24.73
2023-03-16T21:08:27.982Z,25.42
2023-03-16T21:10:57.050Z,26.48
2023-03-16T21:13:29.454Z,30.05
2023-03-16T21:16:00.289Z,29.77
2023-03-16T21:18:28.825Z,28.00
2023-03-16T21:20:58.866Z,22.52
2023-03-16T21:23:26.896Z,27.70
2023-03-16T21:25:56.911Z,29.67
2023-03-16T21:28:26.446Z,30.88
2023-03-16T21:30:58.746Z,24.95
2023-03-16T21:33:30.031Z,28.02
2023-03-16T21:36:00.357Z,25.92
2023-03-16T21:38:29.778Z,30.10
2023-03-16T21:40:58.128Z,30.75
2023-03-16T21:43:26.946Z,26.55
2023-03-16T21:45:56.726Z,41.05
2023-03-16T21:48:29.651Z,26.02
2023-03-16T21:50:59.624Z,26.55
2023-03-16T21:53:29.460Z,24.83
2023-03-16T21:55:58.691Z,24.90
2023-03-16T21:58:27.111Z,28.20
2023-03-16T22:00:56.999Z,21.23
2023-03-16T22:03:33.019Z,28.20
2023-03-16T22:06:12.573Z,24.38
2023-03-16T22:08:41.573Z,23.55
2023-03-16T22:11:16.663Z,24.67
2023-03-16T22:13:44.557Z,21.13
2023-03-16T22:16:16.386Z,22.42
2023-03-16T22:18:45.745Z,22.30
2023-03-16T22:21:28.539Z,21.38
2023-03-16T22:23:58.375Z,22.95
2023-03-16T22:26:27.686Z,25.17
2023-03-16T22:28:56.400Z,23.17
2023-03-16T22:31:31.866Z,26.75
2023-03-16T22:34:00.645Z,26.13
2023-03-16T22:36:32.465Z,26.75
2023-03-16T22:39:02.918Z,29.40
2023-03-16T22:41:31.007Z,30.33
2023-03-16T22:43:59.758Z,31.98
2023-03-16T22:46:29.315Z,26.08
2023-03-16T22:48:57.761Z,31.20
2023-03-16T22:51:30.775Z,27.17
2023-03-16T22:54:02.354Z,24.75
2023-03-16T22:56:31.764Z,27.55
2023-03-16T22:59:02.134Z,30.50
2023-03-16T23:01:34.508Z,35.35
2023-03-16T23:04:03.317Z,29.33
2023-03-16T23:06:33.364Z,34.22
2023-03-16T23:09:01.259Z,32.58
2023-03-16T23:11:32.130Z,35.13
2023-03-16T23:14:03.184Z,35.60
2023-03-16T23:16:35.171Z,37.30
2023-03-16T23:19:07.669Z,34.08
2023-03-16T23:21:42.089Z,37.63
2023-03-16T23:24:10.579Z,29.80
2023-03-16T23:26:39.234Z,33.90
2023-03-16T23:29:07.174Z,49.83
2023-03-16T23:31:35.080Z,35.38
2023-03-16T23:34:02.941Z,35.58
2023-03-16T23:36:30.773Z,30.70
2023-03-16T23:38:59.978Z,34.33
